createdAt,value
2019-02-26T00:01:23.445Z,1.03
2019-02-26T00:03:53.998Z,1.11
2019-02-26T00:06:26.243Z,1.19
2019-02-26T00:08:59.497Z,1.34
2019-02-26T00:11:33.415Z,1.50
2019-02-26T00:14:04.478Z,1.61
2019-02-26T00:16:37.614Z,1.73
2019-02-26T00:19:09.826Z,1.85
2019-02-26T00:21:40.690Z,1.92
2019-02-26T00:24:12.803Z,1.94
2019-02-26T00:26:45.172Z,1.94
2019-02-26T00:29:16.268Z,1.93
2019-02-26T00:31:48.990Z,1.92
2019-02-26T00:34:20.672Z,1.95
2019-02-26T00:36:51.698Z,2.01
2019-02-26T00:39:23.374Z,2.08
2019-02-26T00:41:55.778Z,2.22
2019-02-26T00:44:29.814Z,2.34
2019-02-26T00:47:02.547Z,2.42
2019-02-26T00:49:33.198Z,2.50
2019-02-26T00:52:06.228Z,2.55
2019-02-26T00:54:36.730Z,2.60
2019-02-26T00:57:08.619Z,2.64
2019-02-26T00:59:41.243Z,2.68
2019-02-26T01:02:12.740Z,2.70
2019-02-26T01:04:46.281Z,2.71
2019-02-26T01:07:19.014Z,2.73
2019-02-26T01:09:51.907Z,2.74
2019-02-26T01:12:22.778Z,2.74
2019-02-26T01:14:53.670Z,2.75
2019-02-26T01:17:24.484Z,2.74
2019-02-26T01:19:56.490Z,2.75
2019-02-26T01:22:28.288Z,2.76
2019-02-26T01:24:59.138Z,2.78
2019-02-26T01:27:30.138Z,2.78
2019-02-26T01:30:03.298Z,2.81
2019-02-26T01:32:33.888Z,2.81
2019-02-26T01:35:06.010Z,2.83
2019-02-26T01:37:37.482Z,2.85
2019-02-26T01:40:13.106Z,2.85
2019-02-26T01:42:47.328Z,2.87
2019-02-26T01:45:15.103Z,2.87
2019-02-26T01:47:48.319Z,2.86
2019-02-26T01:50:18.551Z,2.87
2019-02-26T01:52:51.277Z,2.87
2019-02-26T01:55:23.048Z,2.89
2019-02-26T01:57:58.464Z,2.89
2019-02-26T02:00:27.408Z,2.87
2019-02-26T02:02:58.250Z,2.88
2019-02-26T02:05:31.276Z,2.86
2019-02-26T02:08:01.872Z,2.86
2019-02-26T02:10:32.751Z,2.86
2019-02-26T02:13:04.794Z,2.87
2019-02-26T02:15:37.909Z,2.87
2019-02-26T02:18:09.738Z,2.89
2019-02-26T02:20:40.588Z,2.86
2019-02-26T02:23:11.622Z,2.85
2019-02-26T02:25:43.425Z,2.83
2019-02-26T02:28:19.206Z,2.85
2019-02-26T02:30:47.979Z,2.86
2019-02-26T02:33:23.470Z,2.85
2019-02-26T02:35:51.870Z,2.86
2019-02-26T02:38:23.021Z,2.85
2019-02-26T02:40:54.939Z,2.83
2019-02-26T02:43:25.512Z,2.82
2019-02-26T02:45:58.238Z,2.77
2019-02-26T02:48:27.680Z,2.79
2019-02-26T02:50:59.713Z,2.79
2019-02-26T02:53:32.352Z,2.83
2019-02-26T02:56:03.853Z,2.83
2019-02-26T02:58:35.050Z,2.83
2019-02-26T03:01:07.040Z,2.83
2019-02-26T03:03:38.082Z,2.84
2019-02-26T03:06:12.254Z,2.85
2019-02-26T03:08:45.111Z,2.88
2019-02-26T03:11:14.946Z,2.89
2019-02-26T03:13:48.336Z,2.90
2019-02-26T03:16:21.102Z,2.90
2019-02-26T03:18:51.432Z,2.89
2019-02-26T03:21:24.559Z,2.93
2019-02-26T03:23:57.676Z,2.95
2019-02-26T03:26:28.026Z,2.94
2019-02-26T03:28:58.700Z,2.95
2019-02-26T03:31:34.560Z,2.99
2019-02-26T03:34:08.863Z,3.00
2019-02-26T03:36:37.365Z,3.04
2019-02-26T03:39:08.301Z,3.06
2019-02-26T03:41:39.571Z,3.07
2019-02-26T03:44:10.484Z,3.09
2019-02-26T03:46:41.579Z,3.13
2019-02-26T03:49:12.620Z,3.14
2019-02-26T03:51:43.723Z,3.19
2019-02-26T03:54:14.736Z,3.21
2019-02-26T03:56:45.940Z,3.24
2019-02-26T03:59:16.884Z,3.26
2019-02-26T04:01:47.860Z,3.27
2019-02-26T04:04:20.554Z,3.28
2019-02-26T04:06:51.580Z,3.30
2019-02-26T04:09:22.651Z,3.31
2019-02-26T04:11:55.396Z,3.33
2019-02-26T04:14:28.278Z,3.30
2019-02-26T04:17:00.722Z,3.27
2019-02-26T04:19:30.040Z,3.27
2019-02-26T04:22:27.840Z,3.28
2019-02-26T04:25:08.826Z,3.29
2019-02-26T04:28:10.222Z,3.29
2019-02-26T04:31:03.515Z,3.32
2019-02-26T04:34:25.010Z,3.32
2019-02-26T04:39:50.880Z,3.32
2019-02-26T04:43:02.047Z,3.30
2019-02-26T04:46:34.442Z,3.32
2019-02-26T04:49:04.810Z,3.39
2019-02-26T04:51:36.425Z,3.42
2019-02-26T04:54:08.245Z,3.44
2019-02-26T04:56:40.221Z,3.46
2019-02-26T04:59:12.543Z,3.47
2019-02-26T05:01:46.635Z,3.45
2019-02-26T05:04:16.780Z,3.44
2019-02-26T05:06:47.670Z,3.41
2019-02-26T05:09:18.660Z,3.39
2019-02-26T05:11:49.590Z,3.34
2019-02-26T05:14:23.457Z,3.32
2019-02-26T05:16:53.320Z,3.31
2019-02-26T05:19:24.470Z,3.28
2019-02-26T05:21:56.802Z,3.25
2019-02-26T05:24:28.259Z,3.22
2019-02-26T05:26:59.240Z,3.16
2019-02-26T05:29:30.171Z,3.16
2019-02-26T05:32:03.960Z,3.19
2019-02-26T05:34:33.880Z,3.22
2019-02-26T05:37:07.884Z,3.24
2019-02-26T05:39:37.480Z,3.25
2019-02-26T05:42:08.390Z,3.25
2019-02-26T05:44:39.479Z,3.24
2019-02-26T05:47:10.293Z,3.20
2019-02-26T05:49:43.341Z,3.15
2019-02-26T05:52:13.914Z,3.12
2019-02-26T05:54:44.870Z,3.09
2019-02-26T05:57:26.256Z,3.03
2019-02-26T05:59:49.030Z,3.02
2019-02-26T06:02:21.730Z,2.98
2019-02-26T06:04:52.950Z,2.97
2019-02-26T06:07:27.060Z,2.95
2019-02-26T06:09:59.080Z,2.93
2019-02-26T06:12:30.527Z,2.95
2019-02-26T06:15:05.153Z,3.02
2019-02-26T06:17:40.741Z,3.16
2019-02-26T06:20:17.150Z,3.21
2019-02-26T06:22:48.000Z,3.16
2019-02-26T06:25:23.809Z,3.23
2019-02-26T06:27:52.845Z,3.31
2019-02-26T06:30:23.959Z,3.34
2019-02-26T06:32:59.568Z,3.32
2019-02-26T06:35:27.581Z,3.32
2019-02-26T06:37:59.595Z,3.35
2019-02-26T06:40:34.443Z,3.41
2019-02-26T06:43:03.970Z,3.43
2019-02-26T06:45:35.498Z,3.48
2019-02-26T06:48:07.883Z,3.52
2019-02-26T06:50:41.078Z,3.60
2019-02-26T06:53:13.542Z,3.69
2019-02-26T06:55:44.040Z,3.78
2019-02-26T06:58:25.339Z,3.86
2019-02-26T07:00:57.600Z,3.89
2019-02-26T07:03:27.618Z,3.88
2019-02-26T07:06:01.713Z,3.87
2019-02-26T07:08:31.239Z,3.95
2019-02-26T07:11:03.869Z,3.99
2019-02-26T07:13:36.707Z,4.11
2019-02-26T07:16:07.870Z,4.20
2019-02-26T07:18:38.940Z,4.41
2019-02-26T07:21:10.039Z,4.54
2019-02-26T07:23:44.599Z,4.68
2019-02-26T07:26:18.507Z,4.74
2019-02-26T07:28:52.130Z,4.79
2019-02-26T07:31:26.438Z,4.99
2019-02-26T07:34:01.353Z,4.94
2019-02-26T07:36:35.732Z,5.01
2019-02-26T07:39:12.842Z,5.12
2019-02-26T07:41:49.210Z,5.17
2019-02-26T07:44:23.156Z,5.11
2019-02-26T07:46:54.010Z,5.17
2019-02-26T07:49:26.993Z,5.23
2019-02-26T07:52:02.683Z,5.20
2019-02-26T07:54:37.750Z,5.33
2019-02-26T07:57:11.629Z,5.41
2019-02-26T07:59:44.949Z,5.68
2019-02-26T08:02:15.636Z,5.95
2019-02-26T08:04:46.630Z,6.18
2019-02-26T08:07:19.152Z,6.42
2019-02-26T08:09:50.850Z,6.54
2019-02-26T08:12:22.150Z,6.75
2019-02-26T08:14:53.350Z,6.96
2019-02-26T08:17:24.268Z,7.05
2019-02-26T08:19:55.420Z,7.16
2019-02-26T08:22:27.545Z,7.43
2019-02-26T08:24:58.980Z,7.64
2019-02-26T08:27:30.848Z,7.89
2019-02-26T08:30:02.637Z,7.95
2019-02-26T08:35:00.649Z,8.38
2019-02-26T08:37:31.620Z,8.58
2019-02-26T08:40:02.792Z,8.60
2019-02-26T08:42:43.615Z,8.84
2019-02-26T08:45:17.841Z,9.06
2019-02-26T08:47:49.681Z,9.04
2019-02-26T08:50:20.432Z,9.28
2019-02-26T08:52:53.499Z,9.61
2019-02-26T08:55:24.570Z,9.75
2019-02-26T08:57:56.517Z,9.87
2019-02-26T09:00:27.641Z,10.20
2019-02-26T09:02:58.720Z,10.17
2019-02-26T09:05:31.706Z,10.33
2019-02-26T09:08:02.171Z,10.58
2019-02-26T09:10:33.160Z,10.71
2019-02-26T09:13:06.157Z,10.94
2019-02-26T09:15:39.064Z,10.78
2019-02-26T09:18:09.360Z,10.99
2019-02-26T09:20:40.350Z,11.41
2019-02-26T09:23:16.382Z,11.40
2019-02-26T09:25:46.430Z,11.89
2019-02-26T09:28:16.530Z,11.48
2019-02-26T09:30:47.550Z,11.60
2019-02-26T09:33:19.191Z,11.74
2019-02-26T09:35:51.935Z,12.06
2019-02-26T09:38:25.029Z,12.23
2019-02-26T09:40:57.125Z,12.46
2019-02-26T09:43:28.161Z,12.89
2019-02-26T09:45:59.010Z,12.52
2019-02-26T09:48:29.890Z,12.04
2019-02-26T09:51:00.920Z,12.25
2019-02-26T09:53:31.897Z,12.19
2019-02-26T09:56:02.684Z,12.60
2019-02-26T09:58:33.501Z,12.57
2019-02-26T10:01:06.263Z,12.88
2019-02-26T10:03:39.101Z,12.65
2019-02-26T10:06:11.424Z,12.43
2019-02-26T10:08:44.267Z,12.86
2019-02-26T10:11:18.509Z,12.64
2019-02-26T10:13:51.198Z,12.59
2019-02-26T10:16:23.907Z,12.61
2019-02-26T10:18:56.770Z,12.85
2019-02-26T10:21:32.206Z,12.50
2019-02-26T10:24:04.488Z,12.43
2019-02-26T10:26:36.649Z,12.57
2019-02-26T10:29:08.146Z,12.86
2019-02-26T10:31:41.013Z,13.25
2019-02-26T10:34:15.617Z,13.42
2019-02-26T10:36:49.321Z,13.71
2019-02-26T10:39:20.816Z,13.17
2019-02-26T10:41:52.696Z,13.12
2019-02-26T10:44:23.722Z,13.23
2019-02-26T10:46:54.793Z,13.28
2019-02-26T10:49:25.690Z,13.67
2019-02-26T10:51:57.858Z,13.88
2019-02-26T10:54:31.491Z,13.59
2019-02-26T10:57:06.383Z,13.66
2019-02-26T10:59:34.850Z,13.47
2019-02-26T11:02:05.920Z,13.99
2019-02-26T11:04:41.012Z,13.97
2019-02-26T11:07:11.515Z,14.45
2019-02-26T11:09:41.721Z,14.21
2019-02-26T11:12:12.680Z,13.83
2019-02-26T11:14:44.327Z,13.89
2019-02-26T11:17:15.857Z,14.08
2019-02-26T11:19:48.282Z,13.65
2019-02-26T11:22:21.292Z,13.99
2019-02-26T11:24:53.420Z,13.90
2019-02-26T11:27:24.942Z,13.36
2019-02-26T11:29:57.678Z,13.79
2019-02-26T11:32:30.176Z,13.60
2019-02-26T11:35:02.514Z,13.93
2019-02-26T11:37:33.101Z,13.91
2019-02-26T11:40:05.518Z,14.13
2019-02-26T11:42:36.626Z,13.93
2019-02-26T11:45:09.748Z,13.73
2019-02-26T11:47:43.760Z,13.55
2019-02-26T11:50:16.771Z,13.92
2019-02-26T11:52:51.908Z,13.12
2019-02-26T11:55:20.601Z,13.26
2019-02-26T11:57:52.001Z,13.80
2019-02-26T12:00:42.883Z,13.88
2019-02-26T12:03:15.260Z,13.39
2019-02-26T12:05:45.931Z,13.27
2019-02-26T12:08:19.358Z,13.39
2019-02-26T12:10:48.886Z,13.64
2019-02-26T12:13:22.216Z,14.23
2019-02-26T12:15:53.000Z,13.07
2019-02-26T12:18:24.110Z,13.11
2019-02-26T12:20:55.310Z,13.79
2019-02-26T12:23:26.611Z,14.66
2019-02-26T12:25:59.261Z,14.13
2019-02-26T12:28:32.460Z,13.75
2019-02-26T12:31:04.293Z,14.17
2019-02-26T12:33:35.210Z,14.34
2019-02-26T12:36:07.469Z,13.67
2019-02-26T12:38:38.501Z,13.11
2019-02-26T12:41:12.226Z,12.78
2019-02-26T12:43:45.809Z,12.36
2019-02-26T12:46:14.750Z,13.20
2019-02-26T12:48:47.701Z,13.67
2019-02-26T12:51:19.306Z,14.39
2019-02-26T12:53:51.248Z,14.53
2019-02-26T12:56:24.335Z,14.54
2019-02-26T12:58:54.857Z,14.60
2019-02-26T13:01:25.890Z,14.41
2019-02-26T13:03:56.839Z,13.95
2019-02-26T13:06:27.798Z,14.09
2019-02-26T13:08:58.698Z,13.68
2019-02-26T13:11:29.690Z,13.01
2019-02-26T13:14:01.198Z,12.61
2019-02-26T13:16:32.081Z,12.74
2019-02-26T13:19:04.897Z,12.94
2019-02-26T13:21:35.780Z,13.26
2019-02-26T13:24:13.916Z,12.96
2019-02-26T13:26:42.415Z,12.47
2019-02-26T13:29:12.121Z,12.09
2019-02-26T13:31:55.560Z,12.66
2019-02-26T13:34:15.699Z,12.69
2019-02-26T13:36:52.748Z,13.11
2019-02-26T13:39:26.117Z,13.45
2019-02-26T13:41:58.495Z,13.23
2019-02-26T13:44:25.550Z,12.20
2019-02-26T13:46:57.578Z,12.87
2019-02-26T13:49:28.530Z,13.21
2019-02-26T13:51:59.479Z,13.51
2019-02-26T13:54:30.560Z,13.61
2019-02-26T13:57:01.683Z,12.72
2019-02-26T13:59:32.778Z,11.82
2019-02-26T14:02:04.880Z,11.33
2019-02-26T14:04:35.940Z,11.51
2019-02-26T14:07:06.881Z,11.58
2019-02-26T14:09:37.992Z,11.83
2019-02-26T14:12:08.961Z,11.91
2019-02-26T14:14:40.150Z,12.14
2019-02-26T14:17:11.258Z,11.59
2019-02-26T14:19:42.338Z,11.15
2019-02-26T14:22:13.228Z,10.87
2019-02-26T14:24:44.262Z,10.73
2019-02-26T14:27:15.385Z,10.69
2019-02-26T14:29:46.428Z,10.59
2019-02-26T14:32:17.480Z,10.43
2019-02-26T14:34:48.678Z,10.32
2019-02-26T14:37:19.638Z,10.27
2019-02-26T14:39:50.600Z,10.20
2019-02-26T14:42:21.761Z,10.24
2019-02-26T14:44:52.890Z,10.34
2019-02-26T14:47:23.800Z,10.58
2019-02-26T14:49:54.783Z,10.23
2019-02-26T14:52:25.780Z,9.92
2019-02-26T14:54:56.979Z,9.79
2019-02-26T14:57:28.030Z,9.65
2019-02-26T14:59:59.261Z,9.56
2019-02-26T15:02:30.638Z,9.48
2019-02-26T15:05:01.740Z,9.41
2019-02-26T15:07:32.808Z,9.39
2019-02-26T15:10:03.804Z,9.31
2019-02-26T15:12:34.670Z,9.24
2019-02-26T15:15:05.995Z,9.22
2019-02-26T15:17:36.910Z,9.17
2019-02-26T15:20:09.631Z,9.19
2019-02-26T15:22:40.611Z,9.18
2019-02-26T15:25:22.269Z,9.15
2019-02-26T15:27:53.541Z,9.08
2019-02-26T15:30:25.201Z,9.02
2019-02-26T15:32:56.742Z,9.01
2019-02-26T15:35:28.653Z,9.00
2019-02-26T15:37:59.999Z,8.99
2019-02-26T15:40:31.300Z,8.96
2019-02-26T15:43:02.642Z,8.96
2019-02-26T15:45:33.730Z,8.94
2019-02-26T15:48:04.669Z,8.94
2019-02-26T15:50:37.743Z,8.96
2019-02-26T15:53:09.729Z,8.93
2019-02-26T15:55:41.392Z,8.91
2019-02-26T15:58:12.847Z,8.93
2019-02-26T16:00:44.400Z,8.93
2019-02-26T16:03:15.409Z,8.88
2019-02-26T16:05:46.979Z,8.83
2019-02-26T16:08:18.021Z,8.82
2019-02-26T16:10:48.963Z,8.79
2019-02-26T16:13:20.091Z,8.80
2019-02-26T16:15:53.719Z,8.77
2019-02-26T16:18:27.626Z,8.76
2019-02-26T16:20:59.976Z,8.71
2019-02-26T16:23:37.980Z,8.69
2019-02-26T16:26:09.890Z,8.66
2019-02-26T16:28:41.002Z,8.64
2019-02-26T16:31:11.914Z,8.62
2019-02-26T16:33:46.425Z,8.55
2019-02-26T16:36:15.655Z,8.55
2019-02-26T16:38:50.708Z,8.55
2019-02-26T16:41:19.211Z,8.53
2019-02-26T16:43:51.835Z,8.50
2019-02-26T16:46:23.461Z,8.46
2019-02-26T16:48:54.399Z,8.43
2019-02-26T16:51:25.222Z,8.36
2019-02-26T16:53:56.158Z,8.36
2019-02-26T16:56:27.098Z,8.35
2019-02-26T16:58:58.229Z,8.29
2019-02-26T17:01:29.679Z,8.24
2019-02-26T17:04:01.191Z,8.20
2019-02-26T17:06:32.279Z,8.17
2019-02-26T17:09:04.180Z,8.12
2019-02-26T17:11:36.731Z,8.03
2019-02-26T17:14:07.780Z,7.96
2019-02-26T17:16:40.021Z,7.92
2019-02-26T17:19:11.061Z,7.87
2019-02-26T17:21:42.361Z,7.79
2019-02-26T17:24:13.499Z,7.71
2019-02-26T17:26:44.391Z,7.63
2019-02-26T17:29:16.871Z,7.60
2019-02-26T17:31:48.951Z,7.52
2019-02-26T17:34:23.416Z,7.51
2019-02-26T17:36:53.689Z,7.46
2019-02-26T17:39:27.888Z,7.36
2019-02-26T17:41:58.655Z,7.32
2019-02-26T17:44:30.078Z,7.25
2019-02-26T17:47:01.338Z,7.17
2019-02-26T17:49:33.683Z,7.13
2019-02-26T17:52:06.539Z,7.10
2019-02-26T17:54:38.620Z,7.08
2019-02-26T17:57:09.723Z,7.00
2019-02-26T17:59:40.891Z,6.96
2019-02-26T18:02:12.829Z,6.94
2019-02-26T18:04:44.990Z,6.90
2019-02-26T18:07:19.579Z,6.89
2019-02-26T18:09:50.665Z,6.82
2019-02-26T18:12:21.804Z,6.75
2019-02-26T18:14:53.021Z,6.77
2019-02-26T18:17:24.550Z,6.80
2019-02-26T18:19:55.598Z,6.79
2019-02-26T18:22:27.140Z,6.79
2019-02-26T18:24:58.595Z,6.79
2019-02-26T18:27:30.610Z,6.81
2019-02-26T18:30:01.688Z,6.78
2019-02-26T18:32:33.169Z,6.83
2019-02-26T18:35:04.040Z,6.85
2019-02-26T18:37:36.698Z,6.85
2019-02-26T18:40:08.111Z,6.88
2019-02-26T18:42:41.347Z,6.90
2019-02-26T18:45:14.620Z,6.89
2019-02-26T18:47:47.585Z,6.87
2019-02-26T18:50:18.969Z,6.88
2019-02-26T18:52:49.772Z,6.88
2019-02-26T18:55:20.812Z,6.85
2019-02-26T18:57:52.008Z,6.83
2019-02-26T19:00:25.864Z,6.82
2019-02-26T19:02:58.670Z,6.80
2019-02-26T19:05:29.643Z,6.79
2019-02-26T19:08:00.982Z,6.79
2019-02-26T19:10:31.921Z,6.74
2019-02-26T19:13:03.689Z,6.70
2019-02-26T19:15:34.841Z,6.67
2019-02-26T19:18:06.038Z,6.63
2019-02-26T19:20:38.528Z,6.63
2019-02-26T19:23:10.261Z,6.59
2019-02-26T19:25:42.183Z,6.56
2019-02-26T19:28:13.461Z,6.55
2019-02-26T19:30:44.689Z,6.54
2019-02-26T19:33:15.940Z,6.51
2019-02-26T19:35:47.110Z,6.47
2019-02-26T19:38:17.963Z,6.50
2019-02-26T19:40:49.258Z,6.47
2019-02-26T19:43:20.519Z,6.50
2019-02-26T19:45:51.510Z,6.47
2019-02-26T19:48:22.660Z,6.41
2019-02-26T19:50:53.592Z,6.43
2019-02-26T19:53:26.770Z,6.39
2019-02-26T19:55:57.848Z,6.29
2019-02-26T19:58:31.704Z,6.19
2019-02-26T20:01:02.871Z,6.12
2019-02-26T20:03:39.998Z,5.98
2019-02-26T20:06:06.509Z,5.88
2019-02-26T20:08:37.751Z,5.83
2019-02-26T20:11:09.691Z,5.75
2019-02-26T20:13:42.124Z,5.63
2019-02-26T20:16:13.424Z,5.55
2019-02-26T20:18:44.590Z,5.47
2019-02-26T20:21:16.886Z,5.42
2019-02-26T20:23:48.678Z,5.30
2019-02-26T20:26:19.982Z,5.21
2019-02-26T20:28:51.001Z,5.16
2019-02-26T20:31:22.458Z,5.12
2019-02-26T20:33:54.013Z,5.06
2019-02-26T20:36:25.293Z,5.06
2019-02-26T20:38:56.171Z,4.99
2019-02-26T20:41:27.700Z,4.93
2019-02-26T20:43:59.140Z,4.88
2019-02-26T20:46:30.202Z,4.85
2019-02-26T20:49:01.380Z,4.82
2019-02-26T20:51:33.708Z,4.79
2019-02-26T20:54:04.791Z,4.73
2019-02-26T20:56:36.191Z,4.70
2019-02-26T20:59:07.215Z,4.66
2019-02-26T21:01:40.093Z,4.62
2019-02-26T21:04:10.784Z,4.55
2019-02-26T21:06:41.668Z,4.49
2019-02-26T21:09:12.864Z,4.44
2019-02-26T21:11:44.301Z,4.43
2019-02-26T21:14:15.582Z,4.41
2019-02-26T21:16:46.526Z,4.30
2019-02-26T21:19:17.810Z,4.29
2019-02-26T21:21:49.574Z,4.27
2019-02-26T21:24:20.430Z,4.24
2019-02-26T21:26:52.916Z,4.19
2019-02-26T21:29:24.255Z,4.16
2019-02-26T21:31:55.170Z,4.13
2019-02-26T21:34:26.564Z,4.11
2019-02-26T21:37:00.067Z,4.05
2019-02-26T21:39:30.874Z,3.98
2019-02-26T21:42:01.760Z,3.95
2019-02-26T21:44:32.652Z,3.89
2019-02-26T21:47:03.450Z,3.84
2019-02-26T21:49:34.380Z,3.78
2019-02-26T21:52:08.746Z,3.77
2019-02-26T21:54:40.196Z,3.71
2019-02-26T21:57:10.988Z,3.69
2019-02-26T21:59:49.873Z,3.65
2019-02-26T22:02:18.634Z,3.63
2019-02-26T22:04:47.320Z,3.62
2019-02-26T22:07:19.081Z,3.59
2019-02-26T22:09:51.250Z,3.58
2019-02-26T22:12:24.137Z,3.56
2019-02-26T22:14:56.140Z,3.56
2019-02-26T22:17:27.169Z,3.53
2019-02-26T22:19:58.098Z,3.52
2019-02-26T22:22:28.911Z,3.50
2019-02-26T22:25:09.121Z,3.48
2019-02-26T22:27:33.716Z,3.49
2019-02-26T22:30:06.916Z,3.45
2019-02-26T22:32:38.825Z,3.42
2019-02-26T22:35:10.359Z,3.41
2019-02-26T22:37:42.320Z,3.38
2019-02-26T22:40:13.365Z,3.32
2019-02-26T22:42:44.437Z,3.29
2019-02-26T22:45:15.520Z,3.26
2019-02-26T22:47:46.503Z,3.22
2019-02-26T22:50:17.484Z,3.20
2019-02-26T22:52:48.251Z,3.19
2019-02-26T22:55:19.188Z,3.20
2019-02-26T22:57:50.270Z,3.19
2019-02-26T23:01:00.030Z,3.15
2019-02-26T23:03:32.951Z,3.13
2019-02-26T23:06:04.852Z,3.09
2019-02-26T23:08:36.250Z,3.08
2019-02-26T23:11:07.968Z,3.07
2019-02-26T23:13:39.658Z,3.03
2019-02-26T23:16:11.180Z,3.04
2019-02-26T23:18:42.851Z,3.00
2019-02-26T23:21:16.265Z,3.02
2019-02-26T23:23:48.569Z,3.00
2019-02-26T23:26:19.998Z,2.95
2019-02-26T23:28:54.490Z,2.92
2019-02-26T23:31:25.170Z,2.88
2019-02-26T23:33:56.572Z,2.84
2019-02-26T23:36:28.539Z,2.79
2019-02-26T23:39:00.281Z,2.79
2019-02-26T23:41:33.792Z,2.78
2019-02-26T23:44:05.648Z,2.76
2019-02-26T23:46:37.227Z,2.74
2019-02-26T23:49:08.658Z,2.71
2019-02-26T23:51:40.320Z,2.69
2019-02-26T23:54:12.690Z,2.66
2019-02-26T23:56:42.796Z,2.64
2019-02-26T23:59:14.024Z,2.58
